sensor_id;sensor_type;location;lat;lon;timestamp;pressure;altitude;pressure_sealevel;temperature;humidity
64368;BME280;50692;53.314;-6.300;2023-02-10T00:00:19;103128.19;;;6.59;65.68
64368;BME280;50692;53.314;-6.300;2023-02-10T00:03:05;103129.94;;;6.60;65.54
64368;BME280;50692;53.314;-6.300;2023-02-10T00:05:51;103125.56;;;6.67;64.95
64368;BME280;50692;53.314;-6.300;2023-02-10T00:08:37;103118.56;;;6.63;65.20
64368;BME280;50692;53.314;-6.300;2023-02-10T00:11:24;103109.75;;;6.62;65.10
64368;BME280;50692;53.314;-6.300;2023-02-10T00:14:33;103106.25;;;6.62;65.13
64368;BME280;50692;53.314;-6.300;2023-02-10T00:17:19;103112.41;;;6.64;65.22
64368;BME280;50692;53.314;-6.300;2023-02-10T00:20:05;103119.44;;;6.66;65.36
64368;BME280;50692;53.314;-6.300;2023-02-10T00:22:52;103108.00;;;6.55;65.71
64368;BME280;50692;53.314;-6.300;2023-02-10T00:25:38;103120.31;;;6.68;65.41
64368;BME280;50692;53.314;-6.300;2023-02-10T00:28:25;103117.69;;;6.71;65.30
64368;BME280;50692;53.314;-6.300;2023-02-10T00:31:13;103104.53;;;6.68;65.76
64368;BME280;50692;53.314;-6.300;2023-02-10T00:33:59;103091.38;;;6.68;65.82
64368;BME280;50692;53.314;-6.300;2023-02-10T00:36:45;103097.53;;;6.67;65.96
64368;BME280;50692;53.314;-6.300;2023-02-10T00:39:31;103102.78;;;6.60;66.57
64368;BME280;50692;53.314;-6.300;2023-02-10T00:42:16;103100.16;;;6.63;66.48
64368;BME280;50692;53.314;-6.300;2023-02-10T00:45:03;103096.63;;;6.65;66.66
64368;BME280;50692;53.314;-6.300;2023-02-10T00:47:49;103104.53;;;6.67;66.53
64368;BME280;50692;53.314;-6.300;2023-02-10T00:50:35;103095.78;;;6.66;66.50
64368;BME280;50692;53.314;-6.300;2023-02-10T00:53:21;103091.41;;;6.71;66.34
64368;BME280;50692;53.314;-6.300;2023-02-10T00:56:07;103085.25;;;6.71;66.58
64368;BME280;50692;53.314;-6.300;2023-02-10T00:58:53;103086.13;;;6.76;66.36
64368;BME280;50692;53.314;-6.300;2023-02-10T01:01:39;103082.66;;;6.77;66.43
64368;BME280;50692;53.314;-6.300;2023-02-10T01:04:25;103074.75;;;6.80;66.57
64368;BME280;50692;53.314;-6.300;2023-02-10T01:07:11;103058.97;;;6.72;66.58
64368;BME280;50692;53.314;-6.300;2023-02-10T01:09:57;103064.25;;;6.82;66.59
64368;BME280;50692;53.314;-6.300;2023-02-10T01:12:42;103051.97;;;6.87;66.41
64368;BME280;50692;53.314;-6.300;2023-02-10T01:15:28;103053.69;;;6.91;66.45
64368;BME280;50692;53.314;-6.300;2023-02-10T01:18:14;103045.81;;;6.86;66.56
64368;BME280;50692;53.314;-6.300;2023-02-10T01:21:09;103036.19;;;6.88;66.74
64368;BME280;50692;53.314;-6.300;2023-02-10T01:23:55;103037.06;;;6.93;66.62
64368;BME280;50692;53.314;-6.300;2023-02-10T01:26:41;103045.81;;;6.91;66.52
64368;BME280;50692;53.314;-6.300;2023-02-10T01:29:27;103043.19;;;6.89;66.70
64368;BME280;50692;53.314;-6.300;2023-02-10T01:32:12;103044.97;;;6.92;66.62
64368;BME280;50692;53.314;-6.300;2023-02-10T01:34:58;103039.69;;;6.89;66.87
64368;BME280;50692;53.314;-6.300;2023-02-10T01:37:44;103045.84;;;6.89;67.26
64368;BME280;50692;53.314;-6.300;2023-02-10T01:40:30;103049.34;;;6.90;67.13
64368;BME280;50692;53.314;-6.300;2023-02-10T01:43:16;103036.19;;;6.88;67.30
64368;BME280;50692;53.314;-6.300;2023-02-10T01:46:03;103044.94;;;6.90;67.48
64368;BME280;50692;53.314;-6.300;2023-02-10T01:48:49;103030.03;;;6.91;67.56
64368;BME280;50692;53.314;-6.300;2023-02-10T01:51:44;103024.78;;;6.91;67.70
64368;BME280;50692;53.314;-6.300;2023-02-10T01:54:39;102996.75;;;6.90;67.58
64368;BME280;50692;53.314;-6.300;2023-02-10T01:57:26;103003.75;;;6.97;67.70
64368;BME280;50692;53.314;-6.300;2023-02-10T02:00:13;103000.22;;;6.98;67.62
64368;BME280;50692;53.314;-6.300;2023-02-10T02:03:00;102994.97;;;7.01;67.52
64368;BME280;50692;53.314;-6.300;2023-02-10T02:05:46;102996.75;;;7.02;67.27
64368;BME280;50692;53.314;-6.300;2023-02-10T02:08:32;102984.47;;;7.06;67.34
64368;BME280;50692;53.314;-6.300;2023-02-10T02:11:22;102980.06;;;7.06;67.18
64368;BME280;50692;53.314;-6.300;2023-02-10T02:17:14;102968.66;;;7.10;67.12
64368;BME280;50692;53.314;-6.300;2023-02-10T02:23:34;102980.94;;;7.05;67.04
64368;BME280;50692;53.314;-6.300;2023-02-10T02:26:36;102977.44;;;7.08;66.98
64368;BME280;50692;53.314;-6.300;2023-02-10T02:33:04;102953.75;;;7.14;66.92
64368;BME280;50692;53.314;-6.300;2023-02-10T02:36:01;102942.38;;;7.07;67.25
64368;BME280;50692;53.314;-6.300;2023-02-10T02:38:49;102932.72;;;7.02;67.61
64368;BME280;50692;53.314;-6.300;2023-02-10T02:41:35;102931.88;;;7.03;67.72
64368;BME280;50692;53.314;-6.300;2023-02-10T02:44:21;102944.13;;;7.05;67.83
64368;BME280;50692;53.314;-6.300;2023-02-10T02:53:28;102928.31;;;7.16;67.64
64368;BME280;50692;53.314;-6.300;2023-02-10T02:59:36;102938.84;;;7.20;67.53
64368;BME280;50692;53.314;-6.300;2023-02-10T03:02:25;102922.16;;;7.21;67.74
64368;BME280;50692;53.314;-6.300;2023-02-10T03:05:19;102923.00;;;7.28;67.58
64368;BME280;50692;53.314;-6.300;2023-02-10T03:08:06;102929.16;;;7.29;67.59
64368;BME280;50692;53.314;-6.300;2023-02-10T03:10:52;102926.47;;;7.33;67.60
64368;BME280;50692;53.314;-6.300;2023-02-10T03:13:38;102926.50;;;7.32;67.96
64368;BME280;50692;53.314;-6.300;2023-02-10T03:16:24;102906.41;;;7.20;68.22
64368;BME280;50692;53.314;-6.300;2023-02-10T03:19:10;102929.97;;;7.37;68.16
64368;BME280;50692;53.314;-6.300;2023-02-10T03:21:56;102942.25;;;7.41;68.24
64368;BME280;50692;53.314;-6.300;2023-02-10T03:24:42;102944.00;;;7.45;68.18
64368;BME280;50692;53.314;-6.300;2023-02-10T03:27:27;102939.59;;;7.49;68.17
64368;BME280;50692;53.314;-6.300;2023-02-10T03:30:13;102930.78;;;7.51;68.49
64368;BME280;50692;53.314;-6.300;2023-02-10T03:32:59;102928.16;;;7.53;68.67
64368;BME280;50692;53.314;-6.300;2023-02-10T03:35:45;102920.25;;;7.54;69.10
64368;BME280;50692;53.314;-6.300;2023-02-10T03:38:31;102910.59;;;7.59;69.00
64368;BME280;50692;53.314;-6.300;2023-02-10T03:41:17;102898.28;;;7.63;69.17
64368;BME280;50692;53.314;-6.300;2023-02-10T03:44:03;102907.00;;;7.69;69.31
64368;BME280;50692;53.314;-6.300;2023-02-10T03:46:49;102907.00;;;7.69;69.58
64368;BME280;50692;53.314;-6.300;2023-02-10T03:49:34;102905.22;;;7.73;69.80
64368;BME280;50692;53.314;-6.300;2023-02-10T03:52:21;102901.72;;;7.73;70.30
64368;BME280;50692;53.314;-6.300;2023-02-10T03:55:07;102904.28;;;7.80;70.16
64368;BME280;50692;53.314;-6.300;2023-02-10T03:57:52;102890.25;;;7.84;70.63
64368;BME280;50692;53.314;-6.300;2023-02-10T04:00:38;102890.19;;;7.90;71.21
64368;BME280;50692;53.314;-6.300;2023-02-10T04:03:24;102891.06;;;7.91;71.87
64368;BME280;50692;53.314;-6.300;2023-02-10T04:06:11;102879.63;;;7.97;71.93
64368;BME280;50692;53.314;-6.300;2023-02-10T04:08:57;102876.09;;;7.94;72.85
64368;BME280;50692;53.314;-6.300;2023-02-10T04:11:42;102873.41;;;8.02;72.81
64368;BME280;50692;53.314;-6.300;2023-02-10T04:14:28;102862.00;;;8.03;73.25
64368;BME280;50692;53.314;-6.300;2023-02-10T04:17:14;102863.72;;;8.09;73.63
64368;BME280;50692;53.314;-6.300;2023-02-10T04:20:00;102861.09;;;8.07;74.00
64368;BME280;50692;53.314;-6.300;2023-02-10T04:22:46;102854.91;;;8.11;74.68
64368;BME280;50692;53.314;-6.300;2023-02-10T04:25:32;102845.28;;;8.10;75.32
64368;BME280;50692;53.314;-6.300;2023-02-10T04:28:18;102849.59;;;8.17;75.10
64368;BME280;50692;53.314;-6.300;2023-02-10T04:31:04;102843.47;;;8.17;75.61
64368;BME280;50692;53.314;-6.300;2023-02-10T04:33:50;102846.94;;;8.21;75.83
64368;BME280;50692;53.314;-6.300;2023-02-10T04:36:36;102846.09;;;8.15;76.10
64368;BME280;50692;53.314;-6.300;2023-02-10T04:39:22;102858.31;;;8.24;76.10
64368;BME280;50692;53.314;-6.300;2023-02-10T04:42:08;102839.00;;;8.22;76.75
64368;BME280;50692;53.314;-6.300;2023-02-10T04:44:54;102845.09;;;8.27;76.79
64368;BME280;50692;53.314;-6.300;2023-02-10T04:47:40;102846.00;;;8.23;77.31
64368;BME280;50692;53.314;-6.300;2023-02-10T04:50:25;102843.38;;;8.28;77.29
64368;BME280;50692;53.314;-6.300;2023-02-10T04:53:12;102831.03;;;8.30;77.52
64368;BME280;50692;53.314;-6.300;2023-02-10T04:55:57;102833.66;;;8.31;77.72
64368;BME280;50692;53.314;-6.300;2023-02-10T04:58:43;102835.41;;;8.31;78.56
64368;BME280;50692;53.314;-6.300;2023-02-10T05:01:29;102829.25;;;8.33;78.63
64368;BME280;50692;53.314;-6.300;2023-02-10T05:04:15;102827.56;;;8.28;79.41
64368;BME280;50692;53.314;-6.300;2023-02-10T05:07:01;102832.78;;;8.32;80.28
64368;BME280;50692;53.314;-6.300;2023-02-10T05:09:47;102823.94;;;8.38;80.47
64368;BME280;50692;53.314;-6.300;2023-02-10T05:12:33;102837.09;;;8.41;80.96
64368;BME280;50692;53.314;-6.300;2023-02-10T05:15:19;102837.94;;;8.46;81.30
64368;BME280;50692;53.314;-6.300;2023-02-10T05:18:04;102828.25;;;8.50;81.69
64368;BME280;50692;53.314;-6.300;2023-02-10T05:20:50;102827.28;;;8.55;82.26
64368;BME280;50692;53.314;-6.300;2023-02-10T05:23:36;102824.63;;;8.60;82.79
64368;BME280;50692;53.314;-6.300;2023-02-10T05:26:22;102827.19;;;8.64;82.81
64368;BME280;50692;53.314;-6.300;2023-02-10T05:29:08;102831.59;;;8.64;83.62
64368;BME280;50692;53.314;-6.300;2023-02-10T05:31:54;102833.22;;;8.76;83.27
64368;BME280;50692;53.314;-6.300;2023-02-10T05:34:39;102832.31;;;8.78;83.74
64368;BME280;50692;53.314;-6.300;2023-02-10T05:37:25;102830.50;;;8.80;84.41
64368;BME280;50692;53.314;-6.300;2023-02-10T05:40:11;102819.03;;;8.84;84.30
64368;BME280;50692;53.314;-6.300;2023-02-10T05:42:57;102818.13;;;8.88;86.85
64368;BME280;50692;53.314;-6.300;2023-02-10T05:45:46;102817.13;;;8.97;87.01
64368;BME280;50692;53.314;-6.300;2023-02-10T05:48:32;102803.88;;;9.03;87.89
64368;BME280;50692;53.314;-6.300;2023-02-10T05:51:19;102815.94;;;9.20;90.63
64368;BME280;50692;53.314;-6.300;2023-02-10T05:54:05;102812.31;;;9.27;90.10
64368;BME280;50692;53.314;-6.300;2023-02-10T05:56:51;102794.72;;;9.29;88.74
64368;BME280;50692;53.314;-6.300;2023-02-10T05:59:37;102796.44;;;9.30;88.42
64368;BME280;50692;53.314;-6.300;2023-02-10T06:02:23;102807.00;;;9.30;88.82
64368;BME280;50692;53.314;-6.300;2023-02-10T06:05:09;102802.69;;;9.26;88.65
64368;BME280;50692;53.314;-6.300;2023-02-10T06:07:55;102803.53;;;9.26;89.01
64368;BME280;50692;53.314;-6.300;2023-02-10T06:10:41;102811.25;;;9.40;89.14
64368;BME280;50692;53.314;-6.300;2023-02-10T06:13:27;102817.44;;;9.39;89.64
64368;BME280;50692;53.314;-6.300;2023-02-10T06:16:13;102810.41;;;9.38;89.32
64368;BME280;50692;53.314;-6.300;2023-02-10T06:18:59;102798.16;;;9.35;90.64
64368;BME280;50692;53.314;-6.300;2023-02-10T06:21:45;102816.38;;;9.51;91.09
64368;BME280;50692;53.314;-6.300;2023-02-10T06:24:31;102809.28;;;9.54;90.46
64368;BME280;50692;53.314;-6.300;2023-02-10T06:27:16;102792.78;;;9.40;89.83
64368;BME280;50692;53.314;-6.300;2023-02-10T06:30:02;102815.53;;;9.50;89.90
64368;BME280;50692;53.314;-6.300;2023-02-10T06:32:48;102813.72;;;9.52;90.24
64368;BME280;50692;53.314;-6.300;2023-02-10T06:35:34;102827.78;;;9.54;89.27
64368;BME280;50692;53.314;-6.300;2023-02-10T06:38:20;102824.34;;;9.48;88.97
64368;BME280;50692;53.314;-6.300;2023-02-10T06:41:06;102812.16;;;9.39;89.54
64368;BME280;50692;53.314;-6.300;2023-02-10T06:43:52;102826.97;;;9.49;89.39
64368;BME280;50692;53.314;-6.300;2023-02-10T06:46:37;102825.25;;;9.47;89.27
64368;BME280;50692;53.314;-6.300;2023-02-10T06:49:23;102815.59;;;9.46;89.18
64368;BME280;50692;53.314;-6.300;2023-02-10T06:52:09;102817.28;;;9.50;88.93
64368;BME280;50692;53.314;-6.300;2023-02-10T06:54:55;102818.16;;;9.50;89.91
64368;BME280;50692;53.314;-6.300;2023-02-10T06:57:41;102811.09;;;9.51;90.84
64368;BME280;50692;53.314;-6.300;2023-02-10T07:00:28;102806.59;;;9.57;91.26
64368;BME280;50692;53.314;-6.300;2023-02-10T07:03:14;102814.50;;;9.60;91.63
64368;BME280;50692;53.314;-6.300;2023-02-10T07:06:00;102808.34;;;9.60;91.08
64368;BME280;50692;53.314;-6.300;2023-02-10T07:08:45;102809.25;;;9.56;90.97
64368;BME280;50692;53.314;-6.300;2023-02-10T07:11:32;102807.47;;;9.58;90.59
64368;BME280;50692;53.314;-6.300;2023-02-10T07:14:18;102828.63;;;9.55;90.22
64368;BME280;50692;53.314;-6.300;2023-02-10T07:17:04;102828.63;;;9.55;89.88
64368;BME280;50692;53.314;-6.300;2023-02-10T07:19:50;102835.81;;;9.47;89.72
64368;BME280;50692;53.314;-6.300;2023-02-10T07:22:35;102830.53;;;9.45;89.38
64368;BME280;50692;53.314;-6.300;2023-02-10T07:25:21;102835.88;;;9.41;89.47
64368;BME280;50692;53.314;-6.300;2023-02-10T07:28:07;102837.63;;;9.42;89.33
64368;BME280;50692;53.314;-6.300;2023-02-10T07:30:53;102842.94;;;9.40;89.75
64368;BME280;50692;53.314;-6.300;2023-02-10T07:33:39;102852.59;;;9.41;89.82
64368;BME280;50692;53.314;-6.300;2023-02-10T07:36:25;102856.06;;;9.45;89.43
64368;BME280;50692;53.314;-6.300;2023-02-10T07:39:11;102856.13;;;9.40;89.66
64368;BME280;50692;53.314;-6.300;2023-02-10T07:41:57;102857.00;;;9.41;90.50
64368;BME280;50692;53.314;-6.300;2023-02-10T07:44:43;102853.38;;;9.49;90.08
64368;BME280;50692;53.314;-6.300;2023-02-10T07:47:29;102852.47;;;9.50;90.10
64368;BME280;50692;53.314;-6.300;2023-02-10T07:50:15;102847.31;;;9.41;90.60
64368;BME280;50692;53.314;-6.300;2023-02-10T07:53:01;102857.88;;;9.43;90.93
64368;BME280;50692;53.314;-6.300;2023-02-10T07:55:46;102863.13;;;9.46;91.21
64368;BME280;50692;53.314;-6.300;2023-02-10T07:58:32;102865.69;;;9.49;91.74
64368;BME280;50692;53.314;-6.300;2023-02-10T08:01:18;102859.66;;;9.42;93.18
64368;BME280;50692;53.314;-6.300;2023-02-10T08:04:04;102867.50;;;9.45;92.96
64368;BME280;50692;53.314;-6.300;2023-02-10T08:06:50;102872.81;;;9.44;93.16
64368;BME280;50692;53.314;-6.300;2023-02-10T08:09:37;102871.00;;;9.47;92.84
64368;BME280;50692;53.314;-6.300;2023-02-10T08:12:23;102871.91;;;9.46;93.39
64368;BME280;50692;53.314;-6.300;2023-02-10T08:15:09;102858.78;;;9.40;93.63
64368;BME280;50692;53.314;-6.300;2023-02-10T08:17:54;102820.44;;;9.13;93.78
64368;BME280;50692;53.314;-6.300;2023-02-10T08:20:40;102857.03;;;9.37;93.72
64368;BME280;50692;53.314;-6.300;2023-02-10T08:23:26;102857.84;;;9.44;93.75
64368;BME280;50692;53.314;-6.300;2023-02-10T08:26:12;102863.19;;;9.38;94.22
64368;BME280;50692;53.314;-6.300;2023-02-10T08:28:58;102863.16;;;9.43;94.18
64368;BME280;50692;53.314;-6.300;2023-02-10T08:31:44;102871.91;;;9.45;94.35
64368;BME280;50692;53.314;-6.300;2023-02-10T08:34:33;102868.41;;;9.46;94.44
64368;BME280;50692;53.314;-6.300;2023-02-10T08:37:19;102872.78;;;9.47;95.09
64368;BME280;50692;53.314;-6.300;2023-02-10T08:40:06;102893.03;;;9.46;95.03
64368;BME280;50692;53.314;-6.300;2023-02-10T08:42:53;102873.59;;;9.49;95.40
64368;BME280;50692;53.314;-6.300;2023-02-10T08:45:39;102867.50;;;9.47;95.40
64368;BME280;50692;53.314;-6.300;2023-02-10T08:48:26;102879.69;;;9.57;95.47
64368;BME280;50692;53.314;-6.300;2023-02-10T08:51:13;102881.41;;;9.58;95.45
64368;BME280;50692;53.314;-6.300;2023-02-10T08:54:00;102890.09;;;9.66;95.23
64368;BME280;50692;53.314;-6.300;2023-02-10T08:56:47;102891.78;;;9.70;95.29
64368;BME280;50692;53.314;-6.300;2023-02-10T08:59:33;102894.38;;;9.73;95.17
64368;BME280;50692;53.314;-6.300;2023-02-10T09:02:19;102896.13;;;9.76;95.34
64368;BME280;50692;53.314;-6.300;2023-02-10T09:05:05;102892.53;;;9.81;95.34
64368;BME280;50692;53.314;-6.300;2023-02-10T09:07:50;102890.66;;;9.87;95.23
64368;BME280;50692;53.314;-6.300;2023-02-10T09:10:39;102897.56;;;9.95;94.73
64368;BME280;50692;53.314;-6.300;2023-02-10T09:13:25;102897.56;;;9.95;94.77
64368;BME280;50692;53.314;-6.300;2023-02-10T09:16:11;102904.59;;;9.98;94.61
64368;BME280;50692;53.314;-6.300;2023-02-10T09:18:56;102909.69;;;10.08;94.32
64368;BME280;50692;53.314;-6.300;2023-02-10T09:21:42;102909.53;;;10.19;93.92
64368;BME280;50692;53.314;-6.300;2023-02-10T09:24:28;102921.78;;;10.23;93.83
64368;BME280;50692;53.314;-6.300;2023-02-10T09:27:15;102919.94;;;10.31;93.76
64368;BME280;50692;53.314;-6.300;2023-02-10T09:30:01;102903.34;;;10.22;93.52
64368;BME280;50692;53.314;-6.300;2023-02-10T09:32:47;102921.56;;;10.40;93.26
64368;BME280;50692;53.314;-6.300;2023-02-10T09:35:33;102932.13;;;10.40;93.45
64368;BME280;50692;53.314;-6.300;2023-02-10T09:38:18;102925.06;;;10.42;93.18
64368;BME280;50692;53.314;-6.300;2023-02-10T09:44:13;102916.94;;;10.51;93.11
64368;BME280;50692;53.314;-6.300;2023-02-10T09:53:21;102920.38;;;10.58;92.82
64368;BME280;50692;53.314;-6.300;2023-02-10T09:56:14;102933.53;;;10.60;93.00
64368;BME280;50692;53.314;-6.300;2023-02-10T09:59:02;102920.31;;;10.60;93.28
64368;BME280;50692;53.314;-6.300;2023-02-10T10:01:53;102923.81;;;10.62;93.43
64368;BME280;50692;53.314;-6.300;2023-02-10T10:04:43;102918.50;;;10.63;93.33
64368;BME280;50692;53.314;-6.300;2023-02-10T10:07:33;102910.44;;;10.69;93.36
64368;BME280;50692;53.314;-6.300;2023-02-10T10:10:37;102915.50;;;10.83;93.03
64368;BME280;50692;53.314;-6.300;2023-02-10T10:13:28;102911.53;;;11.05;92.09
64368;BME280;50692;53.314;-6.300;2023-02-10T10:17:01;102915.47;;;11.28;90.53
64368;BME280;50692;53.314;-6.300;2023-02-10T10:19:36;102907.97;;;11.50;89.09
64368;BME280;50692;53.314;-6.300;2023-02-10T10:22:44;102905.81;;;11.66;87.81
64368;BME280;50692;53.314;-6.300;2023-02-10T10:31:46;102899.16;;;11.88;85.44
64368;BME280;50692;53.314;-6.300;2023-02-10T10:34:32;102911.34;;;11.95;85.32
64368;BME280;50692;53.314;-6.300;2023-02-10T10:37:23;102917.44;;;11.99;84.76
64368;BME280;50692;53.314;-6.300;2023-02-10T10:40:17;102917.09;;;12.14;84.26
64368;BME280;50692;53.314;-6.300;2023-02-10T10:43:04;102913.66;;;12.11;84.32
64368;BME280;50692;53.314;-6.300;2023-02-10T10:45:58;102906.78;;;12.02;84.19
64368;BME280;50692;53.314;-6.300;2023-02-10T10:48:45;102889.31;;;11.93;84.66
64368;BME280;50692;53.314;-6.300;2023-02-10T10:51:31;102906.38;;;12.19;83.79
64368;BME280;50692;53.314;-6.300;2023-02-10T10:54:21;102910.56;;;12.28;83.36
64368;BME280;50692;53.314;-6.300;2023-02-10T10:57:11;102909.56;;;12.33;83.01
64368;BME280;50692;53.314;-6.300;2023-02-10T11:05:41;102914.69;;;12.73;80.86
64368;BME280;50692;53.314;-6.300;2023-02-10T11:08:37;102911.22;;;12.70;80.29
64368;BME280;50692;53.314;-6.300;2023-02-10T11:11:37;102911.56;;;12.58;80.56
64368;BME280;50692;53.314;-6.300;2023-02-10T11:14:26;102898.97;;;12.32;81.62
64368;BME280;50692;53.314;-6.300;2023-02-10T11:17:34;102928.97;;;12.34;81.99
64368;BME280;50692;53.314;-6.300;2023-02-10T11:20:31;102914.94;;;12.30;82.25
64368;BME280;50692;53.314;-6.300;2023-02-10T11:23:17;102926.66;;;12.20;82.15
64368;BME280;50692;53.314;-6.300;2023-02-10T11:26:05;102927.59;;;12.17;82.78
64368;BME280;50692;53.314;-6.300;2023-02-10T11:28:55;102922.69;;;12.02;83.38
64368;BME280;50692;53.314;-6.300;2023-02-10T11:31:41;102925.06;;;12.13;83.59
64368;BME280;50692;53.314;-6.300;2023-02-10T11:34:37;102918.25;;;12.03;83.98
64368;BME280;50692;53.314;-6.300;2023-02-10T11:37:32;102907.50;;;12.09;84.07
64368;BME280;50692;53.314;-6.300;2023-02-10T11:40:24;102910.28;;;12.04;84.24
64368;BME280;50692;53.314;-6.300;2023-02-10T11:43:13;102913.75;;;12.06;83.65
64368;BME280;50692;53.314;-6.300;2023-02-10T11:46:03;102919.16;;;12.02;83.79
64368;BME280;50692;53.314;-6.300;2023-02-10T11:48:59;102917.31;;;12.05;83.81
64368;BME280;50692;53.314;-6.300;2023-02-10T11:51:53;102905.00;;;12.03;84.14
64368;BME280;50692;53.314;-6.300;2023-02-10T11:54:40;102898.16;;;11.94;84.70
64368;BME280;50692;53.314;-6.300;2023-02-10T11:57:53;102899.75;;;12.01;84.68
64368;BME280;50692;53.314;-6.300;2023-02-10T12:01:19;102896.06;;;12.07;84.76
64368;BME280;50692;53.314;-6.300;2023-02-10T12:07:39;102885.44;;;12.07;85.03
64368;BME280;50692;53.314;-6.300;2023-02-10T12:26:30;102878.00;;;12.22;83.77
64368;BME280;50692;53.314;-6.300;2023-02-10T12:45:00;102861.41;;;12.48;82.20
64368;BME280;50692;53.314;-6.300;2023-02-10T12:53:35;102861.84;;;12.32;83.34
64368;BME280;50692;53.314;-6.300;2023-02-10T12:56:39;102870.56;;;12.37;83.28
64368;BME280;50692;53.314;-6.300;2023-02-10T12:59:35;102874.00;;;12.40;83.40
64368;BME280;50692;53.314;-6.300;2023-02-10T13:02:31;102862.53;;;12.38;83.27
64368;BME280;50692;53.314;-6.300;2023-02-10T13:05:21;102870.56;;;12.37;83.47
64368;BME280;50692;53.314;-6.300;2023-02-10T13:08:41;102873.16;;;12.38;83.68
64368;BME280;50692;53.314;-6.300;2023-02-10T13:14:22;102859.19;;;12.32;84.12
64368;BME280;50692;53.314;-6.300;2023-02-10T13:17:09;102861.75;;;12.35;84.16
64368;BME280;50692;53.314;-6.300;2023-02-10T13:20:22;102854.66;;;12.37;84.29
64368;BME280;50692;53.314;-6.300;2023-02-10T13:23:46;102858.81;;;12.45;83.95
64368;BME280;50692;53.314;-6.300;2023-02-10T13:26:46;102849.84;;;12.51;83.86
64368;BME280;50692;53.314;-6.300;2023-02-10T13:35:52;102856.56;;;12.64;82.45
64368;BME280;50692;53.314;-6.300;2023-02-10T13:38:39;102860.00;;;12.68;82.05
64368;BME280;50692;53.314;-6.300;2023-02-10T13:41:30;102855.56;;;12.68;81.02
64368;BME280;50692;53.314;-6.300;2023-02-10T13:44:33;102863.44;;;12.71;80.91
64368;BME280;50692;53.314;-6.300;2023-02-10T13:47:37;102861.38;;;12.81;80.46
64368;BME280;50692;53.314;-6.300;2023-02-10T14:02:19;102845.13;;;12.93;77.68
64368;BME280;50692;53.314;-6.300;2023-02-10T14:05:32;102859.66;;;13.10;77.20
64368;BME280;50692;53.314;-6.300;2023-02-10T14:08:28;102876.59;;;13.06;77.29
64368;BME280;50692;53.314;-6.300;2023-02-10T14:16:49;102851.13;;;13.00;77.56
64368;BME280;50692;53.314;-6.300;2023-02-10T14:19:38;102859.75;;;13.07;77.22
64368;BME280;50692;53.314;-6.300;2023-02-10T14:22:32;102855.97;;;13.15;76.93
64368;BME280;50692;53.314;-6.300;2023-02-10T14:25:31;102857.56;;;13.21;76.13
64368;BME280;50692;53.314;-6.300;2023-02-10T14:28:22;102847.78;;;13.23;76.00
64368;BME280;50692;53.314;-6.300;2023-02-10T14:31:16;102867.19;;;13.27;75.80
64368;BME280;50692;53.314;-6.300;2023-02-10T14:34:15;102854.84;;;13.24;75.77
64368;BME280;50692;53.314;-6.300;2023-02-10T14:37:15;102858.25;;;13.29;75.80
64368;BME280;50692;53.314;-6.300;2023-02-10T14:40:02;102866.25;;;13.28;75.99
64368;BME280;50692;53.314;-6.300;2023-02-10T14:42:49;102858.25;;;13.29;75.76
64368;BME280;50692;53.314;-6.300;2023-02-10T14:45:34;102868.13;;;13.24;76.27
64368;BME280;50692;53.314;-6.300;2023-02-10T14:48:26;102864.63;;;13.22;76.30
64368;BME280;50692;53.314;-6.300;2023-02-10T14:51:23;102861.94;;;13.24;76.50
64368;BME280;50692;53.314;-6.300;2023-02-10T14:57:01;102861.28;;;13.15;76.99
64368;BME280;50692;53.314;-6.300;2023-02-10T14:59:55;102861.28;;;13.15;76.76
64368;BME280;50692;53.314;-6.300;2023-02-10T15:02:47;102857.94;;;13.09;76.80
64368;BME280;50692;53.314;-6.300;2023-02-10T15:05:53;102851.00;;;13.03;76.54
64368;BME280;50692;53.314;-6.300;2023-02-10T15:09:13;102855.28;;;13.09;76.08
64368;BME280;50692;53.314;-6.300;2023-02-10T15:12:07;102842.41;;;12.95;75.39
64368;BME280;50692;53.314;-6.300;2023-02-10T15:18:15;102822.19;;;12.91;74.90
64368;BME280;50692;53.314;-6.300;2023-02-10T15:21:05;102836.00;;;13.02;75.28
64368;BME280;50692;53.314;-6.300;2023-02-10T15:23:51;102840.50;;;13.00;75.64
64368;BME280;50692;53.314;-6.300;2023-02-10T15:26:37;102843.16;;;13.00;76.12
64368;BME280;50692;53.314;-6.300;2023-02-10T15:29:35;102850.22;;;13.00;76.10
64368;BME280;50692;53.314;-6.300;2023-02-10T15:32:22;102846.78;;;12.96;75.86
64368;BME280;50692;53.314;-6.300;2023-02-10T15:35:07;102854.59;;;13.02;75.65
64368;BME280;50692;53.314;-6.300;2023-02-10T15:38:01;102850.16;;;13.03;75.49
64368;BME280;50692;53.314;-6.300;2023-02-10T15:40:56;102848.31;;;13.05;75.06
64368;BME280;50692;53.314;-6.300;2023-02-10T15:43:47;102856.31;;;13.03;74.88
64368;BME280;50692;53.314;-6.300;2023-02-10T15:46:34;102848.59;;;12.95;75.14
64368;BME280;50692;53.314;-6.300;2023-02-10T15:49:21;102854.09;;;12.89;75.02
64368;BME280;50692;53.314;-6.300;2023-02-10T15:52:31;102856.78;;;12.88;75.45
64368;BME280;50692;53.314;-6.300;2023-02-10T15:55:21;102848.00;;;12.86;75.60
64368;BME280;50692;53.314;-6.300;2023-02-10T15:58:10;102854.25;;;12.83;76.25
64368;BME280;50692;53.314;-6.300;2023-02-10T16:00:56;102859.59;;;12.82;76.49
64368;BME280;50692;53.314;-6.300;2023-02-10T16:03:42;102863.31;;;12.76;77.04
64368;BME280;50692;53.314;-6.300;2023-02-10T16:06:28;102867.69;;;12.77;77.35
64368;BME280;50692;53.314;-6.300;2023-02-10T16:09:14;102873.16;;;12.71;77.51
64368;BME280;50692;53.314;-6.300;2023-02-10T16:12:00;102871.34;;;12.73;77.55
64368;BME280;50692;53.314;-6.300;2023-02-10T16:14:46;102874.94;;;12.70;77.79
64368;BME280;50692;53.314;-6.300;2023-02-10T16:17:41;102884.78;;;12.67;78.06
64368;BME280;50692;53.314;-6.300;2023-02-10T16:20:30;102882.13;;;12.67;78.27
64368;BME280;50692;53.314;-6.300;2023-02-10T16:23:18;102885.63;;;12.67;78.23
64368;BME280;50692;53.314;-6.300;2023-02-10T16:26:04;102891.00;;;12.66;78.59
64368;BME280;50692;53.314;-6.300;2023-02-10T16:28:50;102884.78;;;12.67;78.30
64368;BME280;50692;53.314;-6.300;2023-02-10T16:31:36;102878.66;;;12.65;78.54